Aérodrome :
LOGIN :

S'inscrire | Disclaimer

   EN    FR    IT 

 










Légende :    VFR   VFR Marginal   IFR   IFR Intensif   IFR Très Intensif
Visi : 
Plafond : 
>= 8 km
>= 3000ft
5 à 8 km
1000 à 3000 ft
1500m à 5 km
500 à 1000 ft
800 à 1500m
200 à 500 ft
< 800m
< 200 ft
Symboles :   Orages  Brouillard  Fortes neiges  Fortes précipitations  Vent > 20 kt
SIGMETs :   Divers  Orages  Givrage  Turbulence  Onde Orograph.  Cendres Volcan.







- Altitude de l'aérodrome : 364 ft
- Code IATA : FRA


EDDF - Frankfurt Int.

METARs EXPIRÉS :
  • 241420Z 26013KT 210V290 CAVOK 26/09 Q1015 NOSIG
  • 241350Z 24009KT 130V270 CAVOK 26/10 Q1015 NOSIG
  • 241320Z 21013KT 170V250 CAVOK 26/09 Q1016 NOSIG
  • 241250Z 24012KT 190V280 CAVOK 25/09 Q1016 NOSIG
  • 241220Z 21011KT 180V270 CAVOK 24/09 Q1016 NOSIG
  • 241150Z 22012G23KT 190V270 CAVOK 24/09 Q1016 NOSIG

TAF TAF EDDF
Valide du 24 à 12h jusqu'au 25 à 18h UTC


241100Z 2412/2518 23012KT CAVOK
TEMPO 2412/2416 24015G25KT
BECMG 2418/2421 22005KT
BECMG 2506/2508 24012KT
TEMPO 2510/2518 24015G25KT
Pas de NOTAMs connus pour ce terrain.



MET'MAP, la Météo Aéronautique d'un coup d'oeil ! - Copyright ORBIFLY Décembre 2007 - Disclaimer

ORBIFLY MET'MAP TEAM :

Programmation & Développement : Alexandra Zaïnal
Conception & Développement : Baudouin d'Aumeries
Co-Programmation & Développement : Marc-Olivier Méhu
Soutien technique & logistique : Manuel Goepfert

Contact : metmap@orbifly.com




SOURCES & CREDITS :

   NOAA